sensor_id;sensor_type;location;lat;lon;timestamp;P1;durP1;ratioP1;P2;durP2;ratioP2
54883;SDS011;40776;52.880;6.016;2023-04-19T00:01:20;16.00;;;6.82;;
54883;SDS011;40776;52.880;6.016;2023-04-19T00:03:47;15.93;;;8.02;;
54883;SDS011;40776;52.880;6.016;2023-04-19T00:06:13;12.55;;;7.50;;
54883;SDS011;40776;52.880;6.016;2023-04-19T00:08:40;15.10;;;7.90;;
54883;SDS011;40776;52.880;6.016;2023-04-19T00:11:06;12.85;;;7.38;;
54883;SDS011;40776;52.880;6.016;2023-04-19T00:13:33;12.18;;;7.45;;
54883;SDS011;40776;52.880;6.016;2023-04-19T00:15:59;12.07;;;7.53;;
54883;SDS011;40776;52.880;6.016;2023-04-19T00:18:25;15.82;;;8.10;;
54883;SDS011;40776;52.880;6.016;2023-04-19T00:20:51;13.40;;;8.70;;
54883;SDS011;40776;52.880;6.016;2023-04-19T00:23:17;13.90;;;7.40;;
54883;SDS011;40776;52.880;6.016;2023-04-19T00:25:47;14.85;;;7.60;;
54883;SDS011;40776;52.880;6.016;2023-04-19T00:28:13;14.23;;;8.20;;
54883;SDS011;40776;52.880;6.016;2023-04-19T00:30:40;13.52;;;7.80;;
54883;SDS011;40776;52.880;6.016;2023-04-19T00:33:06;12.50;;;6.97;;
54883;SDS011;40776;52.880;6.016;2023-04-19T00:35:39;15.05;;;6.90;;
54883;SDS011;40776;52.880;6.016;2023-04-19T00:38:08;11.63;;;7.18;;
54883;SDS011;40776;52.880;6.016;2023-04-19T00:40:34;16.48;;;7.50;;
54883;SDS011;40776;52.880;6.016;2023-04-19T00:43:00;12.05;;;7.63;;
54883;SDS011;40776;52.880;6.016;2023-04-19T00:45:26;13.95;;;7.43;;
54883;SDS011;40776;52.880;6.016;2023-04-19T00:47:53;11.77;;;7.47;;
54883;SDS011;40776;52.880;6.016;2023-04-19T00:50:19;11.32;;;7.18;;
54883;SDS011;40776;52.880;6.016;2023-04-19T00:52:45;14.20;;;7.85;;
54883;SDS011;40776;52.880;6.016;2023-04-19T00:55:11;15.25;;;7.70;;
54883;SDS011;40776;52.880;6.016;2023-04-19T00:57:37;13.15;;;8.15;;
54883;SDS011;40776;52.880;6.016;2023-04-19T01:00:04;11.55;;;7.53;;
54883;SDS011;40776;52.880;6.016;2023-04-19T01:02:31;11.90;;;7.40;;
54883;SDS011;40776;52.880;6.016;2023-04-19T01:04:57;12.07;;;7.10;;
54883;SDS011;40776;52.880;6.016;2023-04-19T01:07:23;11.85;;;6.85;;
54883;SDS011;40776;52.880;6.016;2023-04-19T01:09:50;11.65;;;7.15;;
54883;SDS011;40776;52.880;6.016;2023-04-19T01:12:16;13.43;;;6.95;;
54883;SDS011;40776;52.880;6.016;2023-04-19T01:14:42;12.20;;;7.25;;
54883;SDS011;40776;52.880;6.016;2023-04-19T01:17:08;13.80;;;7.38;;
54883;SDS011;40776;52.880;6.016;2023-04-19T01:19:35;12.50;;;7.63;;
54883;SDS011;40776;52.880;6.016;2023-04-19T01:22:01;12.60;;;6.95;;
54883;SDS011;40776;52.880;6.016;2023-04-19T01:24:28;11.13;;;6.88;;
54883;SDS011;40776;52.880;6.016;2023-04-19T01:26:54;11.75;;;7.30;;
54883;SDS011;40776;52.880;6.016;2023-04-19T01:29:20;12.82;;;7.07;;
54883;SDS011;40776;52.880;6.016;2023-04-19T01:31:47;12.75;;;7.47;;
54883;SDS011;40776;52.880;6.016;2023-04-19T01:34:17;11.02;;;6.65;;
54883;SDS011;40776;52.880;6.016;2023-04-19T01:36:43;13.15;;;7.28;;
54883;SDS011;40776;52.880;6.016;2023-04-19T01:39:09;13.48;;;7.32;;
54883;SDS011;40776;52.880;6.016;2023-04-19T01:41:35;10.30;;;6.20;;
54883;SDS011;40776;52.880;6.016;2023-04-19T01:44:02;11.57;;;6.82;;
54883;SDS011;40776;52.880;6.016;2023-04-19T01:46:28;11.05;;;6.93;;
54883;SDS011;40776;52.880;6.016;2023-04-19T01:48:54;10.57;;;6.95;;
54883;SDS011;40776;52.880;6.016;2023-04-19T01:51:20;12.82;;;6.97;;
54883;SDS011;40776;52.880;6.016;2023-04-19T01:53:46;13.40;;;7.38;;
54883;SDS011;40776;52.880;6.016;2023-04-19T01:56:18;11.80;;;6.43;;
54883;SDS011;40776;52.880;6.016;2023-04-19T01:58:44;11.20;;;5.65;;
54883;SDS011;40776;52.880;6.016;2023-04-19T02:01:10;13.82;;;6.00;;
54883;SDS011;40776;52.880;6.016;2023-04-19T02:03:40;12.50;;;6.82;;
54883;SDS011;40776;52.880;6.016;2023-04-19T02:06:09;9.85;;;6.22;;
54883;SDS011;40776;52.880;6.016;2023-04-19T02:08:36;14.30;;;5.85;;
54883;SDS011;40776;52.880;6.016;2023-04-19T02:11:09;10.93;;;6.78;;
54883;SDS011;40776;52.880;6.016;2023-04-19T02:13:35;14.23;;;6.40;;
54883;SDS011;40776;52.880;6.016;2023-04-19T02:16:01;11.02;;;6.57;;
54883;SDS011;40776;52.880;6.016;2023-04-19T02:18:28;14.00;;;6.47;;
54883;SDS011;40776;52.880;6.016;2023-04-19T02:20:54;11.55;;;6.55;;
54883;SDS011;40776;52.880;6.016;2023-04-19T02:23:20;15.93;;;7.50;;
54883;SDS011;40776;52.880;6.016;2023-04-19T02:25:46;17.08;;;7.38;;
54883;SDS011;40776;52.880;6.016;2023-04-19T02:28:12;11.98;;;6.78;;
54883;SDS011;40776;52.880;6.016;2023-04-19T02:30:38;11.60;;;6.05;;
54883;SDS011;40776;52.880;6.016;2023-04-19T02:33:04;13.02;;;6.68;;
54883;SDS011;40776;52.880;6.016;2023-04-19T02:35:30;11.20;;;7.00;;
54883;SDS011;40776;52.880;6.016;2023-04-19T02:37:56;11.93;;;6.88;;
54883;SDS011;40776;52.880;6.016;2023-04-19T02:40:23;10.63;;;6.45;;
54883;SDS011;40776;52.880;6.016;2023-04-19T02:42:49;11.13;;;6.93;;
54883;SDS011;40776;52.880;6.016;2023-04-19T02:45:15;11.40;;;6.63;;
54883;SDS011;40776;52.880;6.016;2023-04-19T02:47:41;13.43;;;7.20;;
54883;SDS011;40776;52.880;6.016;2023-04-19T02:50:07;14.23;;;7.35;;
54883;SDS011;40776;52.880;6.016;2023-04-19T02:52:34;14.65;;;7.30;;
54883;SDS011;40776;52.880;6.016;2023-04-19T02:55:00;12.15;;;7.70;;
54883;SDS011;40776;52.880;6.016;2023-04-19T02:57:26;16.05;;;8.38;;
54883;SDS011;40776;52.880;6.016;2023-04-19T02:59:52;12.52;;;7.07;;
54883;SDS011;40776;52.880;6.016;2023-04-19T03:02:18;17.17;;;7.80;;
54883;SDS011;40776;52.880;6.016;2023-04-19T03:04:44;16.08;;;8.32;;
54883;SDS011;40776;52.880;6.016;2023-04-19T03:07:11;14.27;;;7.50;;
54883;SDS011;40776;52.880;6.016;2023-04-19T03:09:37;16.23;;;7.75;;
54883;SDS011;40776;52.880;6.016;2023-04-19T03:12:04;11.98;;;7.00;;
54883;SDS011;40776;52.880;6.016;2023-04-19T03:14:30;12.48;;;7.25;;
54883;SDS011;40776;52.880;6.016;2023-04-19T03:16:57;15.02;;;7.85;;
54883;SDS011;40776;52.880;6.016;2023-04-19T03:19:23;15.38;;;7.60;;
54883;SDS011;40776;52.880;6.016;2023-04-19T03:21:50;14.85;;;8.07;;
54883;SDS011;40776;52.880;6.016;2023-04-19T03:24:17;12.38;;;7.45;;
54883;SDS011;40776;52.880;6.016;2023-04-19T03:26:44;15.07;;;8.15;;
54883;SDS011;40776;52.880;6.016;2023-04-19T03:29:10;16.45;;;7.85;;
54883;SDS011;40776;52.880;6.016;2023-04-19T03:31:38;12.52;;;7.00;;
54883;SDS011;40776;52.880;6.016;2023-04-19T03:34:04;13.00;;;7.70;;
54883;SDS011;40776;52.880;6.016;2023-04-19T03:36:30;14.45;;;7.97;;
54883;SDS011;40776;52.880;6.016;2023-04-19T03:38:56;13.80;;;7.63;;
54883;SDS011;40776;52.880;6.016;2023-04-19T03:41:23;16.33;;;8.35;;
54883;SDS011;40776;52.880;6.016;2023-04-19T03:43:49;15.90;;;7.80;;
54883;SDS011;40776;52.880;6.016;2023-04-19T03:46:15;14.02;;;8.55;;
54883;SDS011;40776;52.880;6.016;2023-04-19T03:48:41;15.05;;;8.10;;
54883;SDS011;40776;52.880;6.016;2023-04-19T03:51:07;15.98;;;8.30;;
54883;SDS011;40776;52.880;6.016;2023-04-19T03:53:34;15.10;;;7.85;;
54883;SDS011;40776;52.880;6.016;2023-04-19T03:56:00;13.23;;;7.25;;
54883;SDS011;40776;52.880;6.016;2023-04-19T03:58:26;16.30;;;8.05;;
54883;SDS011;40776;52.880;6.016;2023-04-19T04:00:52;13.93;;;8.25;;
54883;SDS011;40776;52.880;6.016;2023-04-19T04:03:18;16.15;;;8.45;;
54883;SDS011;40776;52.880;6.016;2023-04-19T04:05:44;17.00;;;7.93;;
54883;SDS011;40776;52.880;6.016;2023-04-19T04:08:10;15.98;;;8.52;;
54883;SDS011;40776;52.880;6.016;2023-04-19T04:10:37;11.80;;;7.40;;
54883;SDS011;40776;52.880;6.016;2023-04-19T04:13:03;16.33;;;7.78;;
54883;SDS011;40776;52.880;6.016;2023-04-19T04:15:30;12.02;;;7.63;;
54883;SDS011;40776;52.880;6.016;2023-04-19T04:17:56;14.20;;;7.85;;
54883;SDS011;40776;52.880;6.016;2023-04-19T04:20:22;15.38;;;8.00;;
54883;SDS011;40776;52.880;6.016;2023-04-19T04:22:48;13.50;;;7.35;;
54883;SDS011;40776;52.880;6.016;2023-04-19T04:25:14;13.95;;;7.40;;
54883;SDS011;40776;52.880;6.016;2023-04-19T04:27:41;15.30;;;7.93;;
54883;SDS011;40776;52.880;6.016;2023-04-19T04:30:08;12.88;;;7.20;;
54883;SDS011;40776;52.880;6.016;2023-04-19T04:32:35;15.30;;;8.00;;
54883;SDS011;40776;52.880;6.016;2023-04-19T04:35:02;15.10;;;7.60;;
54883;SDS011;40776;52.880;6.016;2023-04-19T04:37:30;12.60;;;6.45;;
54883;SDS011;40776;52.880;6.016;2023-04-19T04:39:58;15.30;;;8.13;;
54883;SDS011;40776;52.880;6.016;2023-04-19T04:42:24;12.32;;;6.30;;
54883;SDS011;40776;52.880;6.016;2023-04-19T04:44:51;10.93;;;6.65;;
54883;SDS011;40776;52.880;6.016;2023-04-19T04:47:19;12.50;;;6.50;;
54883;SDS011;40776;52.880;6.016;2023-04-19T04:49:45;16.92;;;6.97;;
54883;SDS011;40776;52.880;6.016;2023-04-19T04:52:11;11.30;;;5.63;;
54883;SDS011;40776;52.880;6.016;2023-04-19T04:54:37;11.05;;;6.18;;
54883;SDS011;40776;52.880;6.016;2023-04-19T04:57:03;10.38;;;6.25;;
54883;SDS011;40776;52.880;6.016;2023-04-19T04:59:29;12.57;;;5.97;;
54883;SDS011;40776;52.880;6.016;2023-04-19T05:01:55;12.13;;;5.88;;
54883;SDS011;40776;52.880;6.016;2023-04-19T05:04:21;13.32;;;6.40;;
54883;SDS011;40776;52.880;6.016;2023-04-19T05:06:47;10.75;;;5.97;;
54883;SDS011;40776;52.880;6.016;2023-04-19T05:09:13;14.82;;;6.28;;
54883;SDS011;40776;52.880;6.016;2023-04-19T05:11:39;9.73;;;5.53;;
54883;SDS011;40776;52.880;6.016;2023-04-19T05:14:05;12.23;;;5.55;;
54883;SDS011;40776;52.880;6.016;2023-04-19T05:16:31;9.35;;;5.78;;
54883;SDS011;40776;52.880;6.016;2023-04-19T05:18:58;8.60;;;4.93;;
54883;SDS011;40776;52.880;6.016;2023-04-19T05:21:24;11.50;;;5.38;;
54883;SDS011;40776;52.880;6.016;2023-04-19T05:23:50;10.98;;;5.82;;
54883;SDS011;40776;52.880;6.016;2023-04-19T05:26:17;11.25;;;5.05;;
54883;SDS011;40776;52.880;6.016;2023-04-19T05:28:43;9.63;;;5.18;;
54883;SDS011;40776;52.880;6.016;2023-04-19T05:31:10;13.40;;;6.15;;
54883;SDS011;40776;52.880;6.016;2023-04-19T05:33:36;9.13;;;5.75;;
54883;SDS011;40776;52.880;6.016;2023-04-19T05:36:02;9.45;;;4.70;;
54883;SDS011;40776;52.880;6.016;2023-04-19T05:38:28;10.27;;;5.78;;
54883;SDS011;40776;52.880;6.016;2023-04-19T05:40:55;11.73;;;5.20;;
54883;SDS011;40776;52.880;6.016;2023-04-19T05:43:21;14.90;;;5.22;;
54883;SDS011;40776;52.880;6.016;2023-04-19T05:45:48;12.52;;;5.50;;
54883;SDS011;40776;52.880;6.016;2023-04-19T05:48:14;10.95;;;4.65;;
54883;SDS011;40776;52.880;6.016;2023-04-19T05:50:40;8.85;;;4.65;;
54883;SDS011;40776;52.880;6.016;2023-04-19T05:53:06;7.82;;;4.63;;
54883;SDS011;40776;52.880;6.016;2023-04-19T05:55:32;13.23;;;4.72;;
54883;SDS011;40776;52.880;6.016;2023-04-19T05:57:58;8.40;;;4.10;;
54883;SDS011;40776;52.880;6.016;2023-04-19T06:00:24;7.63;;;4.00;;
54883;SDS011;40776;52.880;6.016;2023-04-19T06:02:52;6.65;;;3.47;;
54883;SDS011;40776;52.880;6.016;2023-04-19T06:05:18;11.75;;;3.97;;
54883;SDS011;40776;52.880;6.016;2023-04-19T06:07:44;7.20;;;3.70;;
54883;SDS011;40776;52.880;6.016;2023-04-19T06:10:12;7.03;;;3.55;;
54883;SDS011;40776;52.880;6.016;2023-04-19T06:12:38;7.03;;;3.58;;
54883;SDS011;40776;52.880;6.016;2023-04-19T06:15:04;7.03;;;4.22;;
54883;SDS011;40776;52.880;6.016;2023-04-19T06:17:30;10.82;;;3.92;;
54883;SDS011;40776;52.880;6.016;2023-04-19T06:19:56;7.38;;;3.20;;
54883;SDS011;40776;52.880;6.016;2023-04-19T06:22:22;6.13;;;2.97;;
54883;SDS011;40776;52.880;6.016;2023-04-19T06:24:48;7.20;;;3.72;;
54883;SDS011;40776;52.880;6.016;2023-04-19T06:27:15;7.13;;;3.53;;
54883;SDS011;40776;52.880;6.016;2023-04-19T06:29:41;13.93;;;4.63;;
54883;SDS011;40776;52.880;6.016;2023-04-19T06:32:07;8.45;;;3.28;;
54883;SDS011;40776;52.880;6.016;2023-04-19T06:34:34;5.32;;;2.92;;
54883;SDS011;40776;52.880;6.016;2023-04-19T06:37:00;8.60;;;3.30;;
54883;SDS011;40776;52.880;6.016;2023-04-19T06:39:26;10.23;;;3.13;;
54883;SDS011;40776;52.880;6.016;2023-04-19T06:41:52;5.22;;;2.85;;
54883;SDS011;40776;52.880;6.016;2023-04-19T06:44:18;5.13;;;2.92;;
54883;SDS011;40776;52.880;6.016;2023-04-19T06:46:44;5.53;;;2.75;;
54883;SDS011;40776;52.880;6.016;2023-04-19T06:49:10;6.72;;;2.75;;
54883;SDS011;40776;52.880;6.016;2023-04-19T06:51:37;5.03;;;2.85;;
54883;SDS011;40776;52.880;6.016;2023-04-19T06:54:03;4.15;;;2.45;;
54883;SDS011;40776;52.880;6.016;2023-04-19T06:56:39;7.15;;;2.95;;
54883;SDS011;40776;52.880;6.016;2023-04-19T06:59:16;4.78;;;3.08;;
54883;SDS011;40776;52.880;6.016;2023-04-19T07:01:43;6.93;;;2.95;;
54883;SDS011;40776;52.880;6.016;2023-04-19T07:04:09;5.43;;;2.60;;
54883;SDS011;40776;52.880;6.016;2023-04-19T07:06:36;4.93;;;2.00;;
54883;SDS011;40776;52.880;6.016;2023-04-19T07:09:03;4.82;;;2.55;;
54883;SDS011;40776;52.880;6.016;2023-04-19T07:11:30;7.60;;;3.28;;
54883;SDS011;40776;52.880;6.016;2023-04-19T07:13:56;8.52;;;3.30;;
54883;SDS011;40776;52.880;6.016;2023-04-19T07:16:24;10.48;;;2.58;;
54883;SDS011;40776;52.880;6.016;2023-04-19T07:18:50;7.57;;;2.45;;
54883;SDS011;40776;52.880;6.016;2023-04-19T07:21:16;5.63;;;2.58;;
54883;SDS011;40776;52.880;6.016;2023-04-19T07:23:42;5.45;;;2.75;;
54883;SDS011;40776;52.880;6.016;2023-04-19T07:26:09;10.70;;;2.70;;
54883;SDS011;40776;52.880;6.016;2023-04-19T07:28:35;5.97;;;2.38;;
54883;SDS011;40776;52.880;6.016;2023-04-19T07:31:01;4.93;;;2.50;;
54883;SDS011;40776;52.880;6.016;2023-04-19T07:33:27;8.50;;;2.70;;
54883;SDS011;40776;52.880;6.016;2023-04-19T07:35:53;5.55;;;1.85;;
54883;SDS011;40776;52.880;6.016;2023-04-19T07:38:20;7.38;;;2.35;;
54883;SDS011;40776;52.880;6.016;2023-04-19T07:40:46;5.53;;;2.50;;
54883;SDS011;40776;52.880;6.016;2023-04-19T07:43:12;3.45;;;1.90;;
54883;SDS011;40776;52.880;6.016;2023-04-19T07:45:38;4.18;;;1.88;;
54883;SDS011;40776;52.880;6.016;2023-04-19T07:48:04;4.10;;;1.95;;
54883;SDS011;40776;52.880;6.016;2023-04-19T07:50:30;4.25;;;1.80;;
54883;SDS011;40776;52.880;6.016;2023-04-19T07:52:56;3.55;;;2.03;;
54883;SDS011;40776;52.880;6.016;2023-04-19T07:55:23;4.05;;;2.40;;
54883;SDS011;40776;52.880;6.016;2023-04-19T07:57:49;3.17;;;1.70;;
54883;SDS011;40776;52.880;6.016;2023-04-19T08:00:15;2.55;;;1.40;;
54883;SDS011;40776;52.880;6.016;2023-04-19T08:02:42;4.72;;;1.73;;
54883;SDS011;40776;52.880;6.016;2023-04-19T08:05:09;2.50;;;1.50;;
54883;SDS011;40776;52.880;6.016;2023-04-19T08:07:35;5.90;;;1.85;;
54883;SDS011;40776;52.880;6.016;2023-04-19T08:10:01;8.50;;;1.77;;
54883;SDS011;40776;52.880;6.016;2023-04-19T08:12:27;3.60;;;1.73;;
54883;SDS011;40776;52.880;6.016;2023-04-19T08:14:53;3.58;;;1.77;;
54883;SDS011;40776;52.880;6.016;2023-04-19T08:17:19;3.83;;;1.67;;
54883;SDS011;40776;52.880;6.016;2023-04-19T08:19:48;5.53;;;1.50;;
54883;SDS011;40776;52.880;6.016;2023-04-19T08:22:14;3.88;;;1.55;;
54883;SDS011;40776;52.880;6.016;2023-04-19T08:24:41;4.72;;;1.42;;
54883;SDS011;40776;52.880;6.016;2023-04-19T08:27:08;4.28;;;1.67;;
54883;SDS011;40776;52.880;6.016;2023-04-19T08:29:34;3.70;;;1.55;;
54883;SDS011;40776;52.880;6.016;2023-04-19T08:32:00;3.13;;;1.65;;
54883;SDS011;40776;52.880;6.016;2023-04-19T08:34:27;3.30;;;1.55;;
54883;SDS011;40776;52.880;6.016;2023-04-19T08:36:53;3.78;;;1.67;;
54883;SDS011;40776;52.880;6.016;2023-04-19T08:39:19;4.05;;;1.80;;
54883;SDS011;40776;52.880;6.016;2023-04-19T08:41:45;7.05;;;2.22;;
54883;SDS011;40776;52.880;6.016;2023-04-19T08:44:11;4.45;;;1.80;;
54883;SDS011;40776;52.880;6.016;2023-04-19T08:46:37;4.00;;;2.05;;
54883;SDS011;40776;52.880;6.016;2023-04-19T08:49:04;6.13;;;2.33;;
54883;SDS011;40776;52.880;6.016;2023-04-19T08:51:30;5.20;;;1.98;;
54883;SDS011;40776;52.880;6.016;2023-04-19T08:53:57;4.07;;;1.92;;
54883;SDS011;40776;52.880;6.016;2023-04-19T08:56:23;7.25;;;2.00;;
54883;SDS011;40776;52.880;6.016;2023-04-19T08:58:50;5.80;;;1.77;;
54883;SDS011;40776;52.880;6.016;2023-04-19T09:01:16;6.30;;;1.80;;
54883;SDS011;40776;52.880;6.016;2023-04-19T09:03:42;3.70;;;2.00;;
54883;SDS011;40776;52.880;6.016;2023-04-19T09:06:10;6.68;;;1.92;;
54883;SDS011;40776;52.880;6.016;2023-04-19T09:08:37;7.75;;;2.10;;
54883;SDS011;40776;52.880;6.016;2023-04-19T09:11:04;4.65;;;2.30;;
54883;SDS011;40776;52.880;6.016;2023-04-19T09:13:30;3.88;;;2.15;;
54883;SDS011;40776;52.880;6.016;2023-04-19T09:15:56;6.32;;;2.25;;
54883;SDS011;40776;52.880;6.016;2023-04-19T09:18:24;3.00;;;2.20;;
54883;SDS011;40776;52.880;6.016;2023-04-19T09:20:50;5.35;;;1.90;;
54883;SDS011;40776;52.880;6.016;2023-04-19T09:25:59;16.00;;;4.07;;
54883;SDS011;40776;52.880;6.016;2023-04-19T09:28:28;6.85;;;3.15;;
54883;SDS011;40776;52.880;6.016;2023-04-19T09:30:55;4.28;;;1.80;;
54883;SDS011;40776;52.880;6.016;2023-04-19T09:33:36;6.32;;;1.85;;
54883;SDS011;40776;52.880;6.016;2023-04-19T09:36:06;5.97;;;1.58;;
54883;SDS011;40776;52.880;6.016;2023-04-19T09:38:48;4.78;;;1.63;;
54883;SDS011;40776;52.880;6.016;2023-04-19T09:41:14;5.00;;;1.73;;
54883;SDS011;40776;52.880;6.016;2023-04-19T09:43:44;4.95;;;1.90;;
54883;SDS011;40776;52.880;6.016;2023-04-19T09:46:29;6.75;;;2.85;;
54883;SDS011;40776;52.880;6.016;2023-04-19T09:51:40;4.75;;;1.73;;
54883;SDS011;40776;52.880;6.016;2023-04-19T09:54:07;9.93;;;2.00;;
54883;SDS011;40776;52.880;6.016;2023-04-19T09:56:34;4.55;;;1.50;;
54883;SDS011;40776;52.880;6.016;2023-04-19T09:59:03;3.95;;;2.20;;
54883;SDS011;40776;52.880;6.016;2023-04-19T10:01:34;4.05;;;1.88;;
54883;SDS011;40776;52.880;6.016;2023-04-19T10:04:00;4.70;;;1.75;;
54883;SDS011;40776;52.880;6.016;2023-04-19T10:06:28;3.15;;;1.20;;
54883;SDS011;40776;52.880;6.016;2023-04-19T10:08:55;4.20;;;1.63;;
54883;SDS011;40776;52.880;6.016;2023-04-19T10:11:25;2.85;;;1.55;;
54883;SDS011;40776;52.880;6.016;2023-04-19T10:13:52;4.28;;;2.08;;
54883;SDS011;40776;52.880;6.016;2023-04-19T10:16:23;3.75;;;1.52;;
54883;SDS011;40776;52.880;6.016;2023-04-19T10:18:50;2.28;;;1.38;;
54883;SDS011;40776;52.880;6.016;2023-04-19T10:21:19;4.20;;;1.80;;
54883;SDS011;40776;52.880;6.016;2023-04-19T10:23:47;3.17;;;1.30;;
54883;SDS011;40776;52.880;6.016;2023-04-19T10:26:13;4.50;;;1.20;;
54883;SDS011;40776;52.880;6.016;2023-04-19T10:28:40;5.97;;;1.52;;
54883;SDS011;40776;52.880;6.016;2023-04-19T10:31:09;3.08;;;1.48;;
54883;SDS011;40776;52.880;6.016;2023-04-19T10:33:36;2.72;;;1.50;;
54883;SDS011;40776;52.880;6.016;2023-04-19T10:36:03;2.60;;;1.60;;
54883;SDS011;40776;52.880;6.016;2023-04-19T10:38:40;3.17;;;1.20;;
54883;SDS011;40776;52.880;6.016;2023-04-19T10:41:11;1.88;;;1.23;;
54883;SDS011;40776;52.880;6.016;2023-04-19T10:51:25;3.08;;;1.40;;
54883;SDS011;40776;52.880;6.016;2023-04-19T10:53:55;2.85;;;1.35;;
54883;SDS011;40776;52.880;6.016;2023-04-19T10:57:07;2.77;;;1.27;;
54883;SDS011;40776;52.880;6.016;2023-04-19T10:59:23;3.15;;;1.50;;
54883;SDS011;40776;52.880;6.016;2023-04-19T11:11:49;6.22;;;1.15;;
54883;SDS011;40776;52.880;6.016;2023-04-19T11:14:15;5.45;;;1.20;;
54883;SDS011;40776;52.880;6.016;2023-04-19T11:16:41;2.78;;;1.10;;
54883;SDS011;40776;52.880;6.016;2023-04-19T11:19:07;1.90;;;0.77;;
54883;SDS011;40776;52.880;6.016;2023-04-19T11:21:38;2.58;;;0.80;;
54883;SDS011;40776;52.880;6.016;2023-04-19T11:24:08;4.65;;;1.33;;
54883;SDS011;40776;52.880;6.016;2023-04-19T11:26:34;4.53;;;1.50;;
54883;SDS011;40776;52.880;6.016;2023-04-19T11:29:00;14.27;;;2.40;;
54883;SDS011;40776;52.880;6.016;2023-04-19T11:31:27;4.97;;;1.30;;
54883;SDS011;40776;52.880;6.016;2023-04-19T11:33:53;5.43;;;1.15;;
54883;SDS011;40776;52.880;6.016;2023-04-19T11:36:19;4.93;;;1.40;;
54883;SDS011;40776;52.880;6.016;2023-04-19T11:38:48;2.60;;;1.30;;
54883;SDS011;40776;52.880;6.016;2023-04-19T11:41:14;3.38;;;1.65;;
54883;SDS011;40776;52.880;6.016;2023-04-19T11:43:40;2.33;;;1.00;;
54883;SDS011;40776;52.880;6.016;2023-04-19T11:46:10;2.25;;;1.13;;
54883;SDS011;40776;52.880;6.016;2023-04-19T11:48:36;3.55;;;1.10;;
54883;SDS011;40776;52.880;6.016;2023-04-19T11:51:03;1.52;;;1.00;;
54883;SDS011;40776;52.880;6.016;2023-04-19T11:53:30;5.10;;;1.20;;
54883;SDS011;40776;52.880;6.016;2023-04-19T11:56:02;6.20;;;1.17;;
54883;SDS011;40776;52.880;6.016;2023-04-19T12:00:56;4.47;;;2.15;;
54883;SDS011;40776;52.880;6.016;2023-04-19T12:03:24;4.20;;;0.93;;
54883;SDS011;40776;52.880;6.016;2023-04-19T12:05:54;4.20;;;1.20;;
54883;SDS011;40776;52.880;6.016;2023-04-19T12:08:33;2.03;;;0.70;;
54883;SDS011;40776;52.880;6.016;2023-04-19T12:11:00;8.38;;;1.27;;
54883;SDS011;40776;52.880;6.016;2023-04-19T12:13:27;2.25;;;1.10;;
54883;SDS011;40776;52.880;6.016;2023-04-19T12:15:55;2.97;;;1.02;;
54883;SDS011;40776;52.880;6.016;2023-04-19T12:18:21;10.75;;;1.35;;
54883;SDS011;40776;52.880;6.016;2023-04-19T12:20:48;3.42;;;1.15;;
54883;SDS011;40776;52.880;6.016;2023-04-19T12:23:14;3.92;;;1.25;;
54883;SDS011;40776;52.880;6.016;2023-04-19T12:25:41;5.57;;;1.67;;
54883;SDS011;40776;52.880;6.016;2023-04-19T12:28:10;2.85;;;0.90;;
54883;SDS011;40776;52.880;6.016;2023-04-19T12:30:40;2.03;;;1.00;;
54883;SDS011;40776;52.880;6.016;2023-04-19T12:33:07;2.15;;;0.90;;
54883;SDS011;40776;52.880;6.016;2023-04-19T12:35:38;5.95;;;1.30;;
54883;SDS011;40776;52.880;6.016;2023-04-19T12:38:05;5.43;;;1.75;;
54883;SDS011;40776;52.880;6.016;2023-04-19T12:40:33;7.00;;;1.33;;
54883;SDS011;40776;52.880;6.016;2023-04-19T12:42:59;13.30;;;1.88;;
54883;SDS011;40776;52.880;6.016;2023-04-19T12:45:25;2.55;;;1.30;;
54883;SDS011;40776;52.880;6.016;2023-04-19T12:53:25;3.53;;;1.33;;
54883;SDS011;40776;52.880;6.016;2023-04-19T12:55:51;3.13;;;1.40;;
54883;SDS011;40776;52.880;6.016;2023-04-19T12:58:17;4.15;;;1.58;;
54883;SDS011;40776;52.880;6.016;2023-04-19T13:00:45;2.97;;;2.20;;
54883;SDS011;40776;52.880;6.016;2023-04-19T13:03:11;5.00;;;2.22;;
54883;SDS011;40776;52.880;6.016;2023-04-19T13:05:37;3.50;;;1.63;;
54883;SDS011;40776;52.880;6.016;2023-04-19T13:08:04;2.80;;;1.75;;
54883;SDS011;40776;52.880;6.016;2023-04-19T13:10:30;3.63;;;1.80;;
54883;SDS011;40776;52.880;6.016;2023-04-19T13:12:57;5.88;;;2.22;;
54883;SDS011;40776;52.880;6.016;2023-04-19T13:15:23;7.18;;;2.30;;
54883;SDS011;40776;52.880;6.016;2023-04-19T13:17:49;3.95;;;1.60;;
54883;SDS011;40776;52.880;6.016;2023-04-19T13:20:17;3.65;;;2.08;;
54883;SDS011;40776;52.880;6.016;2023-04-19T13:22:44;5.53;;;1.90;;
54883;SDS011;40776;52.880;6.016;2023-04-19T13:25:10;6.97;;;1.95;;
54883;SDS011;40776;52.880;6.016;2023-04-19T13:27:36;3.10;;;1.83;;
54883;SDS011;40776;52.880;6.016;2023-04-19T13:30:02;6.53;;;1.88;;
54883;SDS011;40776;52.880;6.016;2023-04-19T13:32:28;4.30;;;2.05;;
54883;SDS011;40776;52.880;6.016;2023-04-19T13:34:54;4.18;;;2.17;;
54883;SDS011;40776;52.880;6.016;2023-04-19T13:37:20;5.18;;;2.20;;
54883;SDS011;40776;52.880;6.016;2023-04-19T13:39:47;8.48;;;2.45;;
54883;SDS011;40776;52.880;6.016;2023-04-19T13:42:15;4.68;;;2.33;;
54883;SDS011;40776;52.880;6.016;2023-04-19T13:44:41;3.88;;;2.15;;
54883;SDS011;40776;52.880;6.016;2023-04-19T13:47:09;3.40;;;2.00;;
54883;SDS011;40776;52.880;6.016;2023-04-19T13:49:35;3.55;;;2.00;;
54883;SDS011;40776;52.880;6.016;2023-04-19T13:52:01;7.45;;;2.33;;
54883;SDS011;40776;52.880;6.016;2023-04-19T13:54:27;7.60;;;2.78;;
54883;SDS011;40776;52.880;6.016;2023-04-19T13:56:54;4.32;;;2.47;;
54883;SDS011;40776;52.880;6.016;2023-04-19T13:59:20;4.70;;;1.98;;
54883;SDS011;40776;52.880;6.016;2023-04-19T14:01:46;6.10;;;2.72;;
54883;SDS011;40776;52.880;6.016;2023-04-19T14:04:12;5.30;;;2.05;;
54883;SDS011;40776;52.880;6.016;2023-04-19T14:06:38;7.85;;;2.45;;
54883;SDS011;40776;52.880;6.016;2023-04-19T14:09:04;4.50;;;2.13;;
54883;SDS011;40776;52.880;6.016;2023-04-19T14:11:31;4.45;;;2.25;;
54883;SDS011;40776;52.880;6.016;2023-04-19T14:13:57;5.88;;;2.10;;
54883;SDS011;40776;52.880;6.016;2023-04-19T14:16:23;6.13;;;3.28;;
54883;SDS011;40776;52.880;6.016;2023-04-19T14:18:49;8.95;;;2.40;;
54883;SDS011;40776;52.880;6.016;2023-04-19T14:21:16;4.70;;;2.47;;
54883;SDS011;40776;52.880;6.016;2023-04-19T14:23:42;5.07;;;2.78;;
54883;SDS011;40776;52.880;6.016;2023-04-19T14:26:08;6.18;;;2.63;;
54883;SDS011;40776;52.880;6.016;2023-04-19T14:28:34;4.32;;;2.67;;
54883;SDS011;40776;52.880;6.016;2023-04-19T14:31:00;4.63;;;2.60;;
54883;SDS011;40776;52.880;6.016;2023-04-19T14:33:26;4.78;;;2.60;;
54883;SDS011;40776;52.880;6.016;2023-04-19T14:35:52;4.47;;;2.88;;
54883;SDS011;40776;52.880;6.016;2023-04-19T14:38:18;4.40;;;2.63;;
54883;SDS011;40776;52.880;6.016;2023-04-19T14:40:45;9.73;;;2.85;;
54883;SDS011;40776;52.880;6.016;2023-04-19T14:43:13;8.65;;;3.15;;
54883;SDS011;40776;52.880;6.016;2023-04-19T14:45:42;6.68;;;3.63;;
54883;SDS011;40776;52.880;6.016;2023-04-19T14:48:08;7.95;;;3.05;;
54883;SDS011;40776;52.880;6.016;2023-04-19T14:50:35;9.32;;;3.17;;
54883;SDS011;40776;52.880;6.016;2023-04-19T14:53:01;7.57;;;2.90;;
54883;SDS011;40776;52.880;6.016;2023-04-19T14:55:27;8.45;;;3.33;;
54883;SDS011;40776;52.880;6.016;2023-04-19T14:57:53;5.40;;;2.85;;
54883;SDS011;40776;52.880;6.016;2023-04-19T15:00:19;7.97;;;3.10;;
54883;SDS011;40776;52.880;6.016;2023-04-19T15:02:45;5.00;;;2.75;;
54883;SDS011;40776;52.880;6.016;2023-04-19T15:05:11;12.85;;;3.33;;
54883;SDS011;40776;52.880;6.016;2023-04-19T15:07:37;8.25;;;3.17;;
54883;SDS011;40776;52.880;6.016;2023-04-19T15:10:04;6.43;;;3.17;;
54883;SDS011;40776;52.880;6.016;2023-04-19T15:12:30;6.68;;;3.17;;